Time;durP1;ratioP1;P1;durP2;ratioP2;P2;SDS_P1;SDS_P2;PMS_P1;PMS_P2;Temp;Humidity;BMP_temperature;BMP_pressure;BME280_temperature;BME280_humidity;BME280_pressure;Samples;Min_cycle;Max_cycle;Signal;HPM_P1;HPM_P2
2022/08/31 00:04:01;;;;;;;8.38;5.60;;;;;;;26.28;49.61;101013.59;4971849;28;20390;-60
2022/08/31 00:06:32;;;;;;;6.63;5.67;;;;;;;26.28;49.38;101013.59;4971821;28;20901;-60
2022/08/31 00:08:58;;;;;;;6.77;6.07;;;;;;;26.26;49.75;101013.03;4971469;28;20391;-59
2022/08/31 00:11:28;;;;;;;7.10;5.57;;;;;;;26.27;49.78;101014.69;4971573;28;20407;-60
2022/08/31 00:14:00;;;;;;;7.67;6.03;;;;;;;26.28;49.84;101016.28;4971706;28;20477;-60
2022/08/31 00:16:29;;;;;;;7.90;5.50;;;;;;;26.27;49.80;101005.69;4971549;28;20477;-60
2022/08/31 00:18:55;;;;;;;6.80;5.30;;;;;;;26.28;49.62;101016.28;4971204;28;20797;-60
2022/08/31 00:21:23;;;;;;;6.53;5.15;;;;;;;26.26;49.50;101015.75;4971487;28;20408;-61
2022/08/31 00:23:49;;;;;;;6.27;5.60;;;;;;;26.27;49.74;101013.84;4971296;28;20388;-60
2022/08/31 00:26:15;;;;;;;6.30;5.57;;;;;;;26.24;49.57;101008.97;4971506;28;20402;-60
2022/08/31 00:28:41;;;;;;;6.95;5.30;;;;;;;26.23;49.88;101005.41;4971509;28;20442;-60
2022/08/31 00:31:07;;;;;;;7.85;5.50;;;;;;;26.23;49.76;100999.16;4971446;28;20441;-60
2022/08/31 00:33:34;;;;;;;7.13;5.63;;;;;;;26.21;49.72;101007.59;4971407;28;20752;-60
2022/08/31 00:36:00;;;;;;;6.38;5.45;;;;;;;26.24;49.93;101001.63;4971011;28;20874;-60
2022/08/31 00:38:26;;;;;;;6.77;5.43;;;;;;;26.23;49.55;100993.72;4971235;28;20983;-61
2022/08/31 00:40:51;;;;;;;6.90;5.93;;;;;;;26.23;49.43;100989.09;4971341;28;20422;-60
2022/08/31 00:43:55;;;;;;;6.33;5.47;;;;;;;26.23;49.87;101001.88;4970993;28;20770;-60
2022/08/31 00:46:30;;;;;;;8.48;5.65;;;;;;;26.21;49.74;101001.34;4988096;28;20417;-61
2022/08/31 00:49:04;;;;;;;6.72;5.82;;;;;;;26.19;49.87;101011.66;4973207;28;20495;-60
2022/08/31 00:51:35;;;;;;;7.63;5.88;;;;;;;26.18;49.75;101012.75;4970862;28;20418;-60
2022/08/31 00:54:01;;;;;;;7.70;5.63;;;;;;;26.18;49.82;101023.59;4971143;28;20462;-60
2022/08/31 00:56:30;;;;;;;8.30;5.55;;;;;;;26.14;49.93;101009.75;4970856;28;20769;-60
2022/08/31 00:58:56;;;;;;;7.10;5.57;;;;;;;26.13;50.44;101008.94;4970586;28;20459;-61
2022/08/31 01:01:22;;;;;;;8.05;5.80;;;;;;;26.12;50.42;101011.91;4971114;28;20383;-60
2022/08/31 01:03:48;;;;;;;7.97;6.03;;;;;;;26.11;50.27;101018.44;4971055;28;20911;-61
2022/08/31 01:06:16;;;;;;;7.55;5.55;;;;;;;26.06;50.35;101013.00;4970835;28;20395;-60
2022/08/31 01:08:44;;;;;;;6.28;5.68;;;;;;;26.06;50.29;101015.69;4970754;28;20782;-59
2022/08/31 01:11:10;;;;;;;8.93;5.60;;;;;;;26.04;50.42;101015.97;4970744;28;20821;-59
2022/08/31 01:13:36;;;;;;;6.40;5.78;;;;;;;26.01;50.43;101021.13;4970794;28;20790;-59
2022/08/31 01:16:09;;;;;;;7.90;5.97;;;;;;;25.99;50.43;101012.41;4971038;28;20388;-59
2022/08/31 01:18:35;;;;;;;8.95;5.97;;;;;;;25.97;50.50;101018.13;4971006;28;20514;-60
2022/08/31 01:21:25;;;;;;;7.70;5.75;;;;;;;25.96;50.44;101021.91;4973897;28;20910;-59
2022/08/31 01:23:53;;;;;;;8.70;5.53;;;;;;;25.98;50.49;101021.63;4974776;28;20391;-60
2022/08/31 01:26:24;;;;;;;8.73;5.78;;;;;;;25.94;50.76;101027.59;4974798;28;20398;-59
2022/08/31 01:28:52;;;;;;;8.50;5.40;;;;;;;25.89;50.66;101021.28;4974658;28;20379;-59
2022/08/31 01:31:26;;;;;;;6.15;5.35;;;;;;;25.86;50.51;101019.94;4974354;28;20394;-59
2022/08/31 01:33:51;;;;;;;8.60;5.40;;;;;;;25.82;50.63;101021.56;4974698;28;20392;-60
2022/08/31 01:36:18;;;;;;;9.90;5.40;;;;;;;25.79;50.44;101021.28;4974375;28;20446;-59
2022/08/31 01:38:44;;;;;;;8.65;5.63;;;;;;;25.75;50.77;101026.41;4974441;28;21251;-59
2022/08/31 01:41:10;;;;;;;7.28;5.80;;;;;;;25.73;50.73;101023.97;4974507;28;20398;-60
2022/08/31 01:43:36;;;;;;;7.45;5.70;;;;;;;25.72;50.61;101027.75;4974465;28;20383;-61
2022/08/31 01:46:08;;;;;;;8.87;5.27;;;;;;;25.71;50.60;101030.72;4974414;28;20407;-58
2022/08/31 01:48:34;;;;;;;6.30;5.32;;;;;;;25.72;50.65;101027.75;4974069;28;20396;-59
2022/08/31 01:51:00;;;;;;;9.13;5.50;;;;;;;25.73;50.70;101039.41;4974314;28;20389;-59
2022/08/31 01:53:26;;;;;;;6.82;5.47;;;;;;;25.72;50.73;101030.47;4974214;28;20402;-60
2022/08/31 01:55:52;;;;;;;7.05;5.30;;;;;;;25.74;50.50;101027.47;4974004;28;20384;-60
2022/08/31 01:58:17;;;;;;;6.82;5.55;;;;;;;25.72;50.64;101033.16;4973691;28;20913;-60
2022/08/31 02:00:43;;;;;;;7.90;5.47;;;;;;;25.72;50.70;101029.66;4973932;28;20391;-59
2022/08/31 02:03:09;;;;;;;7.37;5.50;;;;;;;25.68;50.80;101029.34;4974156;28;20387;-59
2022/08/31 02:05:35;;;;;;;7.72;5.20;;;;;;;25.63;50.94;101025.81;4974011;28;20383;-59
2022/08/31 02:08:01;;;;;;;7.43;5.40;;;;;;;25.64;50.95;101028.25;4973959;28;20388;-59
2022/08/31 02:10:27;;;;;;;6.18;5.57;;;;;;;25.64;50.77;101028.25;4973727;28;20449;-59
2022/08/31 02:12:52;;;;;;;7.63;5.43;;;;;;;25.60;50.72;101037.19;4973950;28;20395;-60
2022/08/31 02:15:19;;;;;;;7.78;5.60;;;;;;;25.58;50.90;101039.34;4973621;28;20379;-61
2022/08/31 02:17:44;;;;;;;6.28;5.68;;;;;;;25.62;50.90;101043.97;4973607;28;20516;-61
2022/08/31 02:20:12;;;;;;;8.47;5.27;;;;;;;25.62;50.72;101038.53;4973868;28;20395;-61
2022/08/31 02:22:38;;;;;;;6.38;5.45;;;;;;;25.62;50.87;101033.09;4973504;28;21009;-60
2022/08/31 02:25:04;;;;;;;8.20;5.70;;;;;;;25.61;50.89;101031.50;4973951;28;20419;-60
2022/08/31 02:27:30;;;;;;;6.30;5.60;;;;;;;25.56;50.79;101023.31;4973340;28;20773;-60
2022/08/31 02:29:56;;;;;;;6.75;5.15;;;;;;;25.58;50.78;101025.78;4972973;28;20394;-60
2022/08/31 02:32:22;;;;;;;7.30;5.70;;;;;;;25.58;50.84;101032.00;4973531;28;20436;-60
2022/08/31 02:34:48;;;;;;;6.65;5.65;;;;;;;25.53;50.89;101024.66;4973330;28;20474;-60
2022/08/31 02:37:14;;;;;;;10.25;6.00;;;;;;;25.55;51.16;101019.78;4973457;28;20511;-60
2022/08/31 02:39:39;;;;;;;6.60;5.70;;;;;;;25.56;51.10;101020.59;4973330;28;20806;-60
2022/08/31 02:42:05;;;;;;;7.50;5.80;;;;;;;25.52;51.21;101019.50;4973093;28;20380;-60
2022/08/31 02:44:30;;;;;;;7.17;5.87;;;;;;;25.51;51.33;101026.81;4973434;28;20392;-61
2022/08/31 02:46:56;;;;;;;6.70;5.67;;;;;;;25.44;51.22;101017.25;4973137;28;20473;-62
2022/08/31 02:49:21;;;;;;;7.78;5.82;;;;;;;25.42;51.50;101033.81;4972640;28;20396;-60
2022/08/31 02:51:47;;;;;;;8.63;6.07;;;;;;;25.38;51.69;101030.00;4972093;28;20387;-59
2022/08/31 02:54:12;;;;;;;6.80;5.83;;;;;;;25.35;51.63;101031.34;4972905;28;20882;-60
2022/08/31 02:56:38;;;;;;;8.77;7.87;;;;;;;25.35;51.89;101042.19;4971133;28;20393;-61
2022/08/31 02:59:05;;;;;;;10.55;8.88;;;;;;;25.37;51.84;101045.47;4970673;28;20427;-61
2022/08/31 03:01:30;;;;;;;9.13;6.90;;;;;;;25.35;52.08;101039.47;4970725;28;20478;-63
2022/08/31 03:03:57;;;;;;;8.80;6.80;;;;;;;25.30;52.11;101036.72;4971652;28;20534;-61
2022/08/31 03:06:23;;;;;;;8.27;6.60;;;;;;;25.27;52.29;101037.25;4969911;28;20398;-61
2022/08/31 03:08:49;;;;;;;8.00;7.20;;;;;;;25.29;52.18;101034.28;4970853;28;20722;-60
2022/08/31 03:11:16;;;;;;;9.60;6.75;;;;;;;25.32;52.20;101042.72;4972454;28;20399;-62
2022/08/31 03:13:42;;;;;;;8.15;6.50;;;;;;;25.29;52.07;101032.38;4971243;28;20423;-62
2022/08/31 03:16:08;;;;;;;7.30;6.40;;;;;;;25.31;52.05;101034.81;4969017;28;20398;-62
2022/08/31 03:18:34;;;;;;;9.77;6.00;;;;;;;25.27;51.92;101034.53;4970059;28;20810;-62
2022/08/31 03:21:01;;;;;;;7.43;6.40;;;;;;;25.26;51.89;101026.66;4969680;28;20397;-61
2022/08/31 03:23:26;;;;;;;7.28;5.72;;;;;;;25.24;51.92;101021.47;4969993;28;20384;-60
2022/08/31 03:25:52;;;;;;;7.43;5.97;;;;;;;25.24;51.92;101023.34;4970246;28;20929;-61
2022/08/31 03:28:17;;;;;;;8.82;6.43;;;;;;;25.22;51.95;101020.88;4969046;28;20386;-61
2022/08/31 03:30:43;;;;;;;6.77;5.33;;;;;;;25.23;51.56;101027.13;4968551;28;20441;-62
2022/08/31 03:33:10;;;;;;;8.57;6.00;;;;;;;25.11;51.92;101028.13;4968480;28;20375;-62
2022/08/31 03:35:36;;;;;;;8.77;5.60;;;;;;;25.08;51.88;101030.56;4969232;28;20388;-60
2022/08/31 03:38:02;;;;;;;10.90;6.05;;;;;;;25.08;51.86;101030.56;4969571;28;20415;-60
2022/08/31 03:40:28;;;;;;;9.48;5.88;;;;;;;25.06;52.00;101032.72;4968897;28;20396;-62
2022/08/31 03:42:56;;;;;;;6.60;5.65;;;;;;;25.04;52.00;101037.56;4983733;28;20387;-61
2022/08/31 03:45:21;;;;;;;8.43;5.80;;;;;;;25.00;52.00;101040.78;4970192;28;20386;-60
2022/08/31 03:47:47;;;;;;;7.50;6.15;;;;;;;25.00;51.99;101032.66;4971342;28;20384;-59
2022/08/31 03:50:14;;;;;;;7.97;6.23;;;;;;;25.00;51.94;101034.56;4971820;28;20387;-59
2022/08/31 03:52:40;;;;;;;7.57;5.90;;;;;;;24.98;51.92;101034.81;4971815;28;20419;-60
2022/08/31 03:55:08;;;;;;;10.65;6.00;;;;;;;24.98;51.88;101042.16;4972016;28;20423;-60
2022/08/31 03:57:34;;;;;;;11.68;6.50;;;;;;;24.90;52.08;101038.03;4971877;28;20414;-59
2022/08/31 03:59:59;;;;;;;9.68;6.38;;;;;;;24.91;52.15;101031.50;4971507;28;20388;-60
2022/08/31 04:02:25;;;;;;;8.97;6.20;;;;;;;24.94;52.03;101041.84;4969937;28;20865;-60
2022/08/31 04:04:52;;;;;;;10.70;6.00;;;;;;;24.94;51.82;101039.13;4969942;28;20387;-61
2022/08/31 04:07:18;;;;;;;10.63;5.70;;;;;;;24.91;52.05;101036.13;4969870;28;20982;-61
2022/08/31 04:09:45;;;;;;;8.18;5.90;;;;;;;24.93;51.85;101039.38;4970074;28;20391;-60
2022/08/31 04:12:10;;;;;;;9.02;6.32;;;;;;;24.89;51.93;101041.00;4970297;28;20839;-61
2022/08/31 04:14:36;;;;;;;10.65;6.30;;;;;;;24.84;52.12;101040.94;4970136;28;20403;-62
2022/08/31 04:17:01;;;;;;;8.20;6.03;;;;;;;24.85;52.15;101050.69;4969494;28;20431;-61
2022/08/31 04:19:27;;;;;;;9.90;6.28;;;;;;;24.82;52.23;101043.91;4969142;28;20434;-61
2022/08/31 04:21:53;;;;;;;8.07;6.00;;;;;;;24.73;52.15;101040.84;4969514;28;20446;-61
2022/08/31 04:24:18;;;;;;;8.10;6.00;;;;;;;24.72;52.14;101041.09;4969497;28;20382;-62
2022/08/31 04:26:44;;;;;;;10.40;6.45;;;;;;;24.71;52.28;101037.56;4969444;28;20770;-63
2022/08/31 04:29:09;;;;;;;9.80;6.17;;;;;;;24.61;52.11;101029.31;4969770;28;21554;-60
2022/08/31 04:31:35;;;;;;;7.47;6.10;;;;;;;24.68;52.10;101050.81;4971461;28;20391;-60
2022/08/31 04:34:02;;;;;;;11.57;6.17;;;;;;;24.68;52.07;101043.50;4971479;28;20479;-60
2022/08/31 04:36:29;;;;;;;8.25;5.78;;;;;;;24.68;51.82;101043.50;4971359;28;20770;-61
2022/08/31 04:38:57;;;;;;;6.18;5.50;;;;;;;24.71;51.85;101053.03;4970993;28;20427;-61
2022/08/31 04:41:26;;;;;;;7.15;6.00;;;;;;;24.69;51.69;101055.97;4971251;28;20390;-61
2022/08/31 04:43:54;;;;;;;6.35;5.45;;;;;;;24.69;51.59;101052.47;4971485;28;20442;-60
2022/08/31 04:46:20;;;;;;;8.88;6.13;;;;;;;24.68;51.67;101054.34;4970904;28;20387;-60
2022/08/31 04:48:46;;;;;;;9.30;6.32;;;;;;;24.68;51.72;101054.34;4970236;28;20873;-61
2022/08/31 04:51:20;;;;;;;8.43;6.13;;;;;;;24.73;51.66;101059.00;4971145;28;20921;-61
2022/08/31 04:53:47;;;;;;;10.95;6.40;;;;;;;24.70;51.62;101054.88;4970997;28;20392;-61
2022/08/31 04:56:19;;;;;;;13.47;7.30;;;;;;;24.71;51.53;101058.44;4971063;28;20418;-61
2022/08/31 04:58:46;;;;;;;9.07;6.93;;;;;;;24.70;51.30;101046.75;4970757;28;20435;-60
2022/08/31 05:01:15;;;;;;;7.97;6.25;;;;;;;24.70;51.29;101063.03;4970572;28;20766;-61
2022/08/31 05:03:42;;;;;;;10.88;6.20;;;;;;;24.71;51.25;101053.84;4970825;28;20392;-61
2022/08/31 05:06:13;;;;;;;8.02;5.80;;;;;;;24.75;51.03;101056.84;4968788;28;20398;-61
2022/08/31 05:08:39;;;;;;;9.13;6.60;;;;;;;24.74;50.85;101050.63;4968816;28;20391;-61
2022/08/31 05:11:16;;;;;;;9.17;6.27;;;;;;;24.76;50.91;101051.19;4969233;28;20395;-62
2022/08/31 05:13:42;;;;;;;12.80;6.38;;;;;;;24.78;51.15;101057.16;4970014;28;20427;-60
2022/08/31 05:16:10;;;;;;;11.27;6.28;;;;;;;24.80;51.01;101055.00;4969848;28;20960;-61
2022/08/31 05:18:37;;;;;;;11.27;6.50;;;;;;;24.82;50.87;101053.94;4970534;28;20423;-62
2022/08/31 05:21:26;;;;;;;10.75;6.45;;;;;;;24.86;51.08;101055.06;4970843;28;20823;-61
2022/08/31 05:23:54;;;;;;;11.00;6.88;;;;;;;24.94;50.72;101060.03;4984876;28;20394;-61
2022/08/31 05:26:22;;;;;;;10.50;5.75;;;;;;;24.93;50.70;101053.75;4970693;28;20384;-61
2022/08/31 05:28:48;;;;;;;10.95;6.50;;;;;;;24.95;50.81;101053.50;4970712;28;20379;-61
2022/08/31 05:31:15;;;;;;;9.57;6.82;;;;;;;25.00;50.64;101046.22;4985498;28;20446;-61
2022/08/31 05:33:40;;;;;;;11.77;7.23;;;;;;;25.05;50.51;101050.88;4970797;28;20402;-61
2022/08/31 05:36:07;;;;;;;11.45;7.80;;;;;;;25.15;50.43;101061.78;4970668;28;20760;-63
2022/08/31 05:38:33;;;;;;;11.30;8.05;;;;;;;25.23;49.96;101057.81;4970608;28;20423;-61
2022/08/31 05:40:59;;;;;;;10.90;8.07;;;;;;;25.40;49.76;101054.97;4970335;28;20387;-60
2022/08/31 05:43:26;;;;;;;14.30;8.75;;;;;;;25.49;49.52;101058.00;4970619;28;20395;-61
2022/08/31 05:45:53;;;;;;;14.75;9.32;;;;;;;25.59;49.47;101052.66;4970393;28;20515;-61
2022/08/31 05:48:19;;;;;;;11.17;9.00;;;;;;;25.74;49.04;101051.91;4970572;28;20470;-61
2022/08/31 05:50:45;;;;;;;10.93;7.78;;;;;;;25.89;48.64;101062.03;4970835;28;20831;-61
2022/08/31 05:53:10;;;;;;;14.03;7.80;;;;;;;25.96;48.52;101050.97;4970280;28;20385;-61
2022/08/31 05:55:36;;;;;;;10.95;6.53;;;;;;;26.16;48.27;101056.47;4970394;28;20905;-61
2022/08/31 05:58:01;;;;;;;9.33;6.30;;;;;;;26.32;47.79;101063.59;4970307;28;20438;-62
2022/08/31 06:00:27;;;;;;;10.17;6.97;;;;;;;26.57;47.02;101062.03;4970566;28;21499;-61
2022/08/31 06:02:52;;;;;;;10.43;6.85;;;;;;;26.80;46.62;101063.47;4970498;28;20407;-61
2022/08/31 06:05:18;;;;;;;6.23;5.60;;;;;;;27.03;46.41;101064.03;4970949;28;20535;-60
2022/08/31 06:07:46;;;;;;;9.65;6.05;;;;;;;27.18;45.84;101057.75;4974003;28;20388;-61
2022/08/31 06:10:13;;;;;;;8.68;5.80;;;;;;;27.55;45.12;101049.31;4973644;28;20395;-60
2022/08/31 06:12:41;;;;;;;10.80;6.55;;;;;;;27.69;44.89;101048.72;4973632;28;20774;-60
2022/08/31 06:15:08;;;;;;;8.63;6.30;;;;;;;27.73;44.50;101049.78;4973174;28;20417;-59
2022/08/31 06:17:34;;;;;;;8.63;5.80;;;;;;;28.50;43.16;101053.00;4973599;28;20434;-60
2022/08/31 06:19:59;;;;;;;9.00;5.68;;;;;;;29.67;40.90;101044.13;4973308;28;20446;-60
2022/08/31 06:22:25;;;;;;;12.23;5.65;;;;;;;31.33;37.97;101034.09;4973602;28;20878;-60
2022/08/31 06:24:51;;;;;;;14.37;5.67;;;;;;;32.70;35.01;101039.75;4973756;28;20387;-60
2022/08/31 06:27:17;;;;;;;11.98;5.82;;;;;;;33.87;33.28;101037.78;4973567;28;20491;-59
2022/08/31 06:29:42;;;;;;;12.20;5.50;;;;;;;35.03;31.28;101035.53;4973004;28;20380;-60
2022/08/31 06:32:09;;;;;;;9.45;6.07;;;;;;;35.92;29.79;101032.88;4973831;28;20391;-59
2022/08/31 06:34:36;;;;;;;6.07;5.17;;;;;;;36.51;28.89;101031.16;4973542;28;20379;-59
2022/08/31 06:37:02;;;;;;;7.97;5.30;;;;;;;37.46;27.65;101034.09;4973444;28;20419;-61
2022/08/31 06:39:27;;;;;;;8.02;5.50;;;;;;;38.25;26.49;101033.78;4973303;28;20857;-59
2022/08/31 06:41:54;;;;;;;9.90;5.23;;;;;;;39.25;25.24;101032.94;4973349;28;20387;-60
2022/08/31 06:44:22;;;;;;;7.15;4.80;;;;;;;39.61;24.79;101024.69;4973320;28;20462;-61
2022/08/31 06:46:49;;;;;;;10.45;5.30;;;;;;;40.32;23.69;101026.25;4972922;28;20440;-60
2022/08/31 06:49:15;;;;;;;12.15;5.97;;;;;;;41.15;22.99;101030.59;4971515;28;20384;-61
2022/08/31 06:51:41;;;;;;;7.30;5.60;;;;;;;41.56;22.19;101027.25;4972729;28;20399;-60
2022/08/31 06:54:08;;;;;;;7.13;5.28;;;;;;;42.07;21.78;101029.63;4972571;28;20418;-60
2022/08/31 06:56:35;;;;;;;9.70;4.95;;;;;;;42.91;20.92;101027.41;4972900;28;20387;-61
2022/08/31 06:59:02;;;;;;;5.15;4.65;;;;;;;43.74;19.62;101030.81;4971858;28;20435;-60
2022/08/31 07:01:29;;;;;;;8.75;5.20;;;;;;;44.14;19.36;101028.22;4972853;28;20399;-62
2022/08/31 07:03:57;;;;;;;6.15;4.93;;;;;;;43.94;19.73;101020.16;4972773;28;20395;-60
2022/08/31 07:06:28;;;;;;;7.88;4.63;;;;;;;43.38;19.87;101027.81;4972933;28;20388;-61
2022/08/31 07:08:57;;;;;;;6.32;4.63;;;;;;;44.08;19.23;101028.59;4972583;28;20901;-61
2022/08/31 07:11:26;;;;;;;5.90;4.60;;;;;;;44.20;19.22;101030.25;4987535;28;20446;-61
2022/08/31 07:13:54;;;;;;;10.07;5.30;;;;;;;44.37;18.89;101027.91;4972510;28;20802;-62
2022/08/31 07:16:21;;;;;;;5.43;4.78;;;;;;;44.58;18.83;101032.78;4972411;28;20387;-61
2022/08/31 07:18:48;;;;;;;10.35;4.72;;;;;;;43.60;19.70;101037.09;4972687;28;20419;-61
2022/08/31 07:21:22;;;;;;;7.65;4.70;;;;;;;43.68;19.49;101041.53;4972898;28;20391;-61
2022/08/31 07:23:49;;;;;;;9.15;4.95;;;;;;;43.36;19.98;101034.94;4972924;28;21357;-61
2022/08/31 07:26:27;;;;;;;5.38;4.80;;;;;;;41.97;21.57;101039.41;4972498;28;20387;-60
2022/08/31 07:28:55;;;;;;;6.60;4.70;;;;;;;40.81;22.99;101037.97;4972568;28;20387;-60
2022/08/31 07:31:24;;;;;;;8.40;5.45;;;;;;;39.85;23.87;101041.13;4972519;28;20479;-60
2022/08/31 07:33:52;;;;;;;5.83;4.70;;;;;;;38.90;24.95;101047.47;4972465;28;20446;-59
2022/08/31 07:36:17;;;;;;;7.20;4.80;;;;;;;38.28;25.96;101044.13;4972188;28;20387;-59
2022/08/31 07:44:22;;;;;;;7.38;4.80;;;;;;;36.82;28.07;101039.00;4962979;28;20419;-61
2022/08/31 07:46:48;;;;;;;5.65;4.78;;;;;;;36.80;27.89;101038.53;4971860;28;20482;-60
2022/08/31 07:49:16;;;;;;;8.23;5.50;;;;;;;36.01;28.72;101038.34;4972053;28;20438;-60
2022/08/31 07:51:49;;;;;;;6.97;5.57;;;;;;;35.51;29.54;101042.69;4972074;28;20384;-60
2022/08/31 07:54:21;;;;;;;6.38;5.20;;;;;;;35.15;30.10;101049.44;4971917;28;20400;-60
2022/08/31 07:56:51;;;;;;;8.15;5.40;;;;;;;34.93;30.56;101046.88;4972045;28;20399;-60
2022/08/31 07:59:21;;;;;;;6.63;5.40;;;;;;;34.77;30.93;101052.94;4971816;28;20427;-60
2022/08/31 08:01:48;;;;;;;9.10;5.93;;;;;;;34.44;31.16;101042.38;4971798;28;20395;-59
2022/08/31 08:04:20;;;;;;;8.40;5.18;;;;;;;33.77;31.38;101042.75;4971469;28;20395;-61
2022/08/31 08:06:47;;;;;;;6.57;5.50;;;;;;;33.40;32.31;101056.66;4971776;28;20893;-60
2022/08/31 08:09:14;;;;;;;8.82;5.10;;;;;;;33.27;32.46;101055.63;4971742;28;20447;-61
2022/08/31 08:11:44;;;;;;;6.60;5.40;;;;;;;33.24;32.74;101041.69;4971772;28;20419;-60
2022/08/31 08:14:11;;;;;;;8.40;5.50;;;;;;;33.18;32.55;101042.97;4971465;28;20391;-63
2022/08/31 08:16:37;;;;;;;5.57;5.07;;;;;;;32.81;32.65;101036.72;4971647;28;20920;-60
2022/08/31 08:19:03;;;;;;;6.18;5.45;;;;;;;32.57;33.65;101046.06;4971265;28;20802;-60
2022/08/31 08:21:29;;;;;;;7.13;5.20;;;;;;;32.45;33.85;101043.06;4971329;28;20384;-60
2022/08/31 08:23:55;;;;;;;8.00;5.63;;;;;;;32.39;33.22;101037.72;4971553;28;20391;-60
2022/08/31 08:26:21;;;;;;;9.70;5.90;;;;;;;32.36;33.63;101038.31;4971504;28;20398;-59
2022/08/31 08:28:46;;;;;;;6.70;5.28;;;;;;;32.47;33.83;101040.84;4971072;28;20387;-59
2022/08/31 08:31:15;;;;;;;6.40;5.40;;;;;;;32.29;33.97;101037.94;4971167;28;20388;-60
2022/08/31 08:33:41;;;;;;;7.93;5.78;;;;;;;32.30;34.08;101036.00;4971059;28;20411;-61
2022/08/31 08:36:07;;;;;;;7.35;5.25;;;;;;;32.52;33.50;101029.72;4971144;28;20396;-60
2022/08/31 08:38:34;;;;;;;6.70;5.10;;;;;;;32.50;33.62;101026.47;4971056;28;20426;-60
2022/08/31 08:41:03;;;;;;;6.13;5.20;;;;;;;32.41;33.89;101026.41;4971109;28;20889;-60
2022/08/31 08:43:35;;;;;;;8.27;5.25;;;;;;;32.41;33.55;101020.09;4970746;28;20430;-60
2022/08/31 08:46:03;;;;;;;6.15;5.10;;;;;;;32.63;33.70;101025.66;4971065;28;20383;-60
2022/08/31 08:48:36;;;;;;;6.38;5.50;;;;;;;32.70;33.49;101026.03;4971018;28;20379;-60
2022/08/31 08:51:08;;;;;;;10.33;5.57;;;;;;;32.77;33.33;101011.84;4970926;28;20486;-60
2022/08/31 08:53:36;;;;;;;6.13;5.30;;;;;;;32.59;33.42;101021.88;4970690;28;20417;-60
2022/08/31 08:56:02;;;;;;;7.82;5.55;;;;;;;32.39;33.70;101010.28;4970929;28;20758;-60
2022/08/31 08:58:27;;;;;;;7.97;5.53;;;;;;;32.43;32.84;101010.47;4971058;28;20939;-60
2022/08/31 09:00:55;;;;;;;8.80;5.43;;;;;;;32.12;32.82;101005.66;4971021;28;20480;-60
2022/08/31 09:03:23;;;;;;;7.20;5.30;;;;;;;31.88;33.44;101000.41;4971045;28;20403;-60
2022/08/31 09:06:00;;;;;;;6.50;5.60;;;;;;;31.75;34.08;100999.31;4970710;28;20419;-60
2022/08/31 09:08:45;;;;;;;8.20;5.40;;;;;;;31.79;34.16;100999.50;4970933;28;20387;-60
2022/08/31 09:11:34;;;;;;;9.30;5.53;;;;;;;31.74;34.31;100996.88;4971042;28;20391;-60
2022/08/31 09:14:31;;;;;;;6.80;5.47;;;;;;;31.62;34.60;100998.22;4970618;28;20989;-60
2022/08/31 09:17:03;;;;;;;6.95;5.50;;;;;;;31.69;34.17;100995.03;4971532;28;20414;-61
2022/08/31 09:19:57;;;;;;;7.22;5.43;;;;;;;31.54;34.44;100996.16;4970883;28;20430;-61
2022/08/31 09:22:14;;;;;;;6.30;5.45;;;;;;;31.57;34.66;100987.34;4970555;28;20928;-60
2022/08/31 09:24:39;;;;;;;6.63;5.60;;;;;;;31.60;34.06;100986.75;4971021;28;20383;-60
2022/08/31 09:27:17;;;;;;;7.37;6.07;;;;;;;31.51;34.54;100987.75;4970683;28;20398;-60
2022/08/31 09:29:53;;;;;;;7.43;6.03;;;;;;;31.32;35.38;100982.34;4970796;28;20431;-60
2022/08/31 09:32:31;;;;;;;8.48;6.35;;;;;;;31.31;35.30;100977.97;4970783;28;20395;-60
2022/08/31 09:35:04;;;;;;;7.07;6.05;;;;;;;31.23;34.58;100974.81;4970837;28;20387;-59
2022/08/31 09:37:33;;;;;;;6.40;5.83;;;;;;;31.14;35.26;100978.59;4970811;28;20391;-60
2022/08/31 09:40:19;;;;;;;7.15;6.45;;;;;;;31.12;34.30;100973.41;4970582;28;20419;-60
2022/08/31 09:42:58;;;;;;;9.48;6.35;;;;;;;30.97;34.87;100982.72;4974419;28;20395;-59
2022/08/31 09:45:34;;;;;;;11.27;6.47;;;;;;;30.90;35.62;100985.00;4974406;28;20392;-61
2022/08/31 09:48:00;;;;;;;7.97;6.33;;;;;;;30.91;35.25;100977.59;4974340;28;20437;-60
2022/08/31 09:50:31;;;;;;;7.35;6.43;;;;;;;30.94;35.25;100972.38;4974378;28;20395;-60
2022/08/31 09:56:20;;;;;;;9.52;6.30;;;;;;;30.76;35.53;100967.75;5010791;28;20387;-61
2022/08/31 09:59:01;;;;;;;10.63;6.53;;;;;;;30.71;35.54;100954.13;4980915;28;20443;-60
2022/08/31 10:01:41;;;;;;;7.20;6.47;;;;;;;30.81;35.61;100957.50;4973729;28;20775;-62
2022/08/31 10:04:22;;;;;;;7.75;6.20;;;;;;;30.92;35.06;100944.47;4973763;28;20403;-59
2022/08/31 10:07:18;;;;;;;7.17;6.23;;;;;;;30.94;35.21;100944.19;4973763;28;20446;-60
2022/08/31 10:09:47;;;;;;;7.85;6.30;;;;;;;31.02;34.84;100946.22;4973859;28;20434;-60
2022/08/31 10:12:37;;;;;;;7.80;6.40;;;;;;;30.91;35.90;100940.06;4973902;28;20379;-61
2022/08/31 10:15:29;;;;;;;7.50;6.80;;;;;;;30.85;35.70;100933.09;4973690;28;20383;-60
2022/08/31 10:18:21;;;;;;;7.70;6.25;;;;;;;30.84;35.38;100918.56;4973453;28;20758;-60
2022/08/31 10:20:55;;;;;;;9.55;7.00;;;;;;;30.84;35.54;100917.75;4974129;28;20462;-59
2022/08/31 10:23:40;;;;;;;8.27;7.10;;;;;;;30.93;35.51;100917.91;4973550;28;20444;-60
2022/08/31 10:26:18;;;;;;;9.52;6.55;;;;;;;30.88;35.54;100910.56;4973339;28;20838;-60
2022/08/31 10:28:54;;;;;;;9.05;6.50;;;;;;;30.90;35.23;100902.88;4973572;28;20396;-60
2022/08/31 10:31:28;;;;;;;9.35;5.97;;;;;;;30.83;35.27;100894.25;4973518;28;20423;-61
2022/08/31 10:36:48;;;;;;;8.10;6.38;;;;;;;31.08;35.00;100890.25;4973261;28;20445;-60
2022/08/31 10:39:27;;;;;;;10.35;6.72;;;;;;;31.12;34.66;100888.53;4973153;28;20465;-60
2022/08/31 10:41:53;;;;;;;7.53;6.63;;;;;;;31.19;34.72;100883.44;4973370;28;20464;-60
2022/08/31 10:44:31;;;;;;;8.82;6.15;;;;;;;31.27;35.27;100889.31;4973242;28;20406;-61
2022/08/31 10:47:01;;;;;;;9.55;6.80;;;;;;;31.19;35.81;100882.66;4973196;28;20890;-59
2022/08/31 10:49:27;;;;;;;7.95;7.20;;;;;;;31.31;35.71;100890.31;4973115;28;20419;-60
2022/08/31 10:52:20;;;;;;;8.45;7.55;;;;;;;31.40;36.12;100869.31;4973120;28;20427;-60
2022/08/31 10:55:12;;;;;;;8.13;7.32;;;;;;;31.50;36.35;100876.53;4973084;28;20406;-60
2022/08/31 10:57:40;;;;;;;11.07;7.65;;;;;;;31.49;35.97;100870.22;4973023;28;21003;-60
2022/08/31 11:03:14;;;;;;;10.32;7.43;;;;;;;31.54;36.72;100866.59;4972317;28;20395;-61
2022/08/31 11:06:13;;;;;;;8.30;7.47;;;;;;;31.55;36.07;100860.00;4972730;28;20375;-59
2022/08/31 11:09:00;;;;;;;9.70;8.35;;;;;;;31.41;36.23;100857.25;4972837;28;20804;-60
2022/08/31 11:11:46;;;;;;;8.55;7.65;;;;;;;31.54;36.03;100858.38;4972518;28;20434;-60
2022/08/31 11:14:57;;;;;;;10.57;7.72;;;;;;;31.70;36.30;100865.13;4972824;28;20389;-59
2022/08/31 11:17:43;;;;;;;10.52;7.70;;;;;;;31.76;35.84;100860.31;4972429;28;20395;-59
2022/08/31 11:20:20;;;;;;;9.27;7.95;;;;;;;31.80;35.84;100848.44;4980714;28;20518;-60
2022/08/31 11:22:48;;;;;;;13.55;8.00;;;;;;;31.80;35.85;100845.69;4972340;28;20391;-60
2022/08/31 11:25:46;;;;;;;8.63;7.75;;;;;;;31.86;36.40;100838.16;4972238;28;20761;-60
2022/08/31 11:28:33;;;;;;;9.75;8.00;;;;;;;31.85;35.78;100843.94;4972497;28;20783;-60
2022/08/31 11:31:05;;;;;;;10.60;7.78;;;;;;;31.68;36.68;100836.41;4972291;28;20470;-60
2022/08/31 11:33:31;;;;;;;10.55;7.95;;;;;;;31.57;36.31;100841.31;4972158;28;20391;-59
2022/08/31 11:36:09;;;;;;;12.32;7.60;;;;;;;31.57;36.34;100838.56;4972376;28;20886;-59
2022/08/31 11:39:14;;;;;;;12.23;7.85;;;;;;;31.63;36.31;100842.81;4972260;28;20419;-59
2022/08/31 11:41:47;;;;;;;9.40;7.93;;;;;;;31.66;36.79;100852.31;4972023;28;20969;-59
2022/08/31 11:44:32;;;;;;;14.27;8.27;;;;;;;31.46;36.35;100840.69;4971891;28;20404;-60
2022/08/31 11:47:08;;;;;;;14.95;7.80;;;;;;;31.33;36.76;100852.47;4972039;28;20414;-60
2022/08/31 11:49:46;;;;;;;14.27;8.48;;;;;;;31.14;37.67;100847.16;4972028;28;20429;-60
2022/08/31 11:52:30;;;;;;;11.15;8.10;;;;;;;30.87;38.56;100884.31;4972073;28;20394;-61
2022/08/31 11:55:08;;;;;;;10.70;6.45;;;;;;;30.88;36.97;100872.25;4972013;28;20450;-60